Rockport, Washington
Current Conditions -  °F | °C
As of 5:35 AM on Thursday 23 Oct 2014 (Local Time) from KAWO Reporting Station
Overcast Overcast  
Wind Chill: 52°   Ceiling: 7500
Heat Index: 52°   Visibility: 10mi
Dew Point: 45°   Wind: 10mph
Humidity: 76%   Direction: 140°SE
Pressure: 29.71"   Gusts: NA
Location:  48.49°N, 121.6°W
Report Text: KAWO 231235Z AUTO 14009KT 10SM SCT060 OVC075 11/07 A2971 RMK AO1
Loading
Personal Weather Stations






























Interactive Weather Map
Tropical Storm Tracking
New forecast layout! Learn more

10-Day Weather Forecast

Advertisements
Track Severe Weather on mobile